Time;durP1;ratioP1;P1;durP2;ratioP2;P2;SDS_P1;SDS_P2;PMS_P1;PMS_P2;Temp;Humidity;BMP_temperature;BMP_pressure;BME280_temperature;BME280_humidity;BME280_pressure;Samples;Min_cycle;Max_cycle;Signal;HPM_P1;HPM_P2
2023/09/05 00:01:51;;;;;;;9.13;2.90;;;;;;;;;;5090549;28;20032;-78
2023/09/05 00:04:17;;;;;;;7.43;2.88;;;;;;;;;;5091766;28;20585;-78
2023/09/05 00:06:42;;;;;;;3.97;2.55;;;;;;;;;;5089957;28;20036;-78
2023/09/05 00:09:08;;;;;;;9.57;3.22;;;;;;;;;;5091034;28;20040;-79
2023/09/05 00:11:34;;;;;;;10.20;3.30;;;;;;;;;;5088947;28;20036;-79
2023/09/05 00:14:00;;;;;;;4.18;2.50;;;;;;;;;;5090280;28;20505;-79
2023/09/05 00:16:26;;;;;;;4.05;2.60;;;;;;;;;;5078882;28;20471;-79
2023/09/05 00:18:52;;;;;;;8.43;2.72;;;;;;;;;;5073309;28;20056;-78
2023/09/05 00:21:18;;;;;;;5.38;2.90;;;;;;;;;;5091356;28;20251;-79
2023/09/05 00:23:44;;;;;;;6.53;2.85;;;;;;;;;;5069962;28;20649;-78
2023/09/05 00:26:10;;;;;;;8.25;2.83;;;;;;;;;;5086606;28;20135;-78
2023/09/05 00:28:35;;;;;;;5.75;2.58;;;;;;;;;;5091906;28;20032;-78
2023/09/05 00:31:01;;;;;;;8.27;2.78;;;;;;;;;;5081682;28;20136;-78
2023/09/05 00:33:28;;;;;;;7.72;2.83;;;;;;;;;;5073247;28;20026;-78
2023/09/05 00:35:54;;;;;;;7.00;3.22;;;;;;;;;;5091780;28;20075;-78
2023/09/05 00:38:19;;;;;;;6.43;2.80;;;;;;;;;;5085417;28;20452;-78
2023/09/05 00:40:45;;;;;;;6.47;2.60;;;;;;;;;;5084842;28;20077;-78
2023/09/05 00:43:10;;;;;;;7.60;2.78;;;;;;;;;;5069584;28;20017;-79
2023/09/05 00:45:38;;;;;;;9.23;3.28;;;;;;;;;;5084846;28;20036;-78
2023/09/05 00:48:07;;;;;;;4.25;3.03;;;;;;;;;;5080173;28;20027;-78
2023/09/05 00:50:32;;;;;;;5.45;2.90;;;;;;;;;;5094629;28;20516;-78
2023/09/05 00:52:58;;;;;;;7.55;3.08;;;;;;;;;;5101537;28;20027;-78
2023/09/05 00:55:23;;;;;;;6.85;2.90;;;;;;;;;;5072510;28;20067;-78
2023/09/05 00:57:49;;;;;;;9.60;2.60;;;;;;;;;;5089028;28;20024;-79
2023/09/05 01:00:17;;;;;;;3.80;2.33;;;;;;;;;;5071503;28;20034;-78
2023/09/05 01:02:44;;;;;;;6.15;2.60;;;;;;;;;;5070123;28;20395;-79
2023/09/05 01:05:11;;;;;;;7.20;2.72;;;;;;;;;;5085159;28;20104;-78
2023/09/05 01:07:54;;;;;;;6.63;2.90;;;;;;;;;;5089848;28;20020;-78
2023/09/05 01:10:31;;;;;;;5.85;2.33;;;;;;;;;;5092671;28;20031;-79
2023/09/05 01:12:57;;;;;;;6.95;2.63;;;;;;;;;;5096138;28;20036;-78
2023/09/05 01:15:23;;;;;;;6.38;2.67;;;;;;;;;;5090714;28;20126;-78
2023/09/05 01:17:50;;;;;;;5.95;2.67;;;;;;;;;;5088812;28;20110;-78
2023/09/05 01:20:18;;;;;;;5.25;2.40;;;;;;;;;;5089431;28;20031;-79
2023/09/05 01:22:48;;;;;;;8.57;2.90;;;;;;;;;;5070626;28;20499;-79
2023/09/05 01:25:14;;;;;;;5.53;2.40;;;;;;;;;;5089374;28;20137;-79
2023/09/05 01:27:39;;;;;;;5.13;2.45;;;;;;;;;;5094062;28;20124;-78
2023/09/05 01:30:05;;;;;;;4.07;2.45;;;;;;;;;;5093871;28;20032;-78
2023/09/05 01:32:31;;;;;;;4.95;2.55;;;;;;;;;;5076541;28;20036;-78
2023/09/05 01:34:56;;;;;;;5.40;2.83;;;;;;;;;;5095127;28;20024;-78
2023/09/05 01:37:22;;;;;;;5.80;2.40;;;;;;;;;;5095656;28;20036;-78
2023/09/05 01:39:48;;;;;;;5.38;2.55;;;;;;;;;;5073277;28;20024;-78
2023/09/05 01:42:13;;;;;;;5.13;2.50;;;;;;;;;;5092242;28;20408;-78
2023/09/05 01:44:39;;;;;;;6.38;2.63;;;;;;;;;;5076618;28;20024;-79
2023/09/05 01:47:04;;;;;;;5.22;2.63;;;;;;;;;;5096112;28;20028;-79
2023/09/05 01:49:30;;;;;;;5.85;2.45;;;;;;;;;;5096033;28;20024;-79
2023/09/05 01:51:55;;;;;;;7.10;3.20;;;;;;;;;;5095591;28;20032;-77
2023/09/05 01:54:21;;;;;;;7.03;2.70;;;;;;;;;;5085564;28;20108;-79
2023/09/05 01:56:46;;;;;;;6.88;2.60;;;;;;;;;;5093159;28;20043;-79
2023/09/05 01:59:12;;;;;;;5.93;2.47;;;;;;;;;;5088632;28;20024;-80
2023/09/05 02:01:37;;;;;;;6.22;2.70;;;;;;;;;;5069454;28;20032;-79
2023/09/05 02:04:03;;;;;;;6.30;2.97;;;;;;;;;;5089422;28;20107;-79
2023/09/05 02:06:28;;;;;;;5.95;2.50;;;;;;;;;;5086204;28;20089;-79
2023/09/05 02:08:54;;;;;;;7.95;3.30;;;;;;;;;;5093021;28;20024;-79
2023/09/05 02:11:20;;;;;;;7.47;2.80;;;;;;;;;;5094261;28;20035;-78
2023/09/05 02:13:46;;;;;;;6.90;2.60;;;;;;;;;;5091826;28;20024;-78
2023/09/05 02:16:18;;;;;;;4.35;2.50;;;;;;;;;;5072551;28;20028;-78
2023/09/05 02:18:45;;;;;;;4.35;2.53;;;;;;;;;;5072366;28;20037;-78
2023/09/05 02:21:10;;;;;;;9.43;3.00;;;;;;;;;;5087094;28;20193;-78
2023/09/05 02:23:35;;;;;;;8.68;2.55;;;;;;;;;;5095101;28;20111;-78
2023/09/05 02:26:02;;;;;;;5.53;2.45;;;;;;;;;;5091576;28;20139;-78
2023/09/05 02:28:27;;;;;;;6.20;2.70;;;;;;;;;;5075762;28;20155;-78
2023/09/05 02:30:53;;;;;;;6.65;2.53;;;;;;;;;;5075456;28;20032;-78
2023/09/05 02:33:19;;;;;;;5.90;2.97;;;;;;;;;;5071971;28;20090;-76
2023/09/05 02:35:47;;;;;;;5.78;2.85;;;;;;;;;;5075495;28;20147;-78
2023/09/05 02:38:13;;;;;;;5.57;2.80;;;;;;;;;;5092078;28;20024;-79
2023/09/05 02:40:43;;;;;;;5.88;2.60;;;;;;;;;;5091502;28;20016;-78
2023/09/05 02:43:08;;;;;;;7.10;2.53;;;;;;;;;;5090655;28;20463;-78
2023/09/05 02:45:34;;;;;;;6.18;3.08;;;;;;;;;;5093341;28;20028;-78
2023/09/05 02:48:00;;;;;;;7.68;2.70;;;;;;;;;;5093515;28;20471;-78
2023/09/05 02:50:25;;;;;;;9.82;3.35;;;;;;;;;;5075008;28;20479;-78
2023/09/05 02:52:51;;;;;;;6.00;2.70;;;;;;;;;;5091887;28;20031;-78
2023/09/05 02:55:16;;;;;;;4.45;2.75;;;;;;;;;;5082571;28;20518;-78
2023/09/05 02:57:42;;;;;;;6.25;2.92;;;;;;;;;;5074912;28;20514;-78
2023/09/05 03:00:08;;;;;;;10.85;2.85;;;;;;;;;;5091626;28;20044;-79
2023/09/05 03:02:35;;;;;;;5.22;2.60;;;;;;;;;;5095713;28;20036;-77
2023/09/05 03:05:01;;;;;;;7.38;2.70;;;;;;;;;;5091838;28;20032;-78
2023/09/05 03:07:26;;;;;;;10.02;3.22;;;;;;;;;;5093195;28;20032;-78
2023/09/05 03:09:52;;;;;;;7.95;3.08;;;;;;;;;;5058192;28;20024;-78
2023/09/05 03:12:20;;;;;;;4.43;2.40;;;;;;;;;;5075088;28;20192;-79
2023/09/05 03:14:46;;;;;;;6.03;2.78;;;;;;;;;;5092872;28;20058;-78
2023/09/05 03:17:11;;;;;;;5.20;2.90;;;;;;;;;;5091932;28;20067;-78
2023/09/05 03:19:38;;;;;;;4.90;3.13;;;;;;;;;;5091368;28;20020;-78
2023/09/05 03:22:04;;;;;;;7.18;2.85;;;;;;;;;;5071361;28;20043;-79
2023/09/05 03:24:30;;;;;;;7.20;3.20;;;;;;;;;;5088480;28;20016;-78
2023/09/05 03:26:55;;;;;;;7.07;3.10;;;;;;;;;;5092093;28;20505;-78
2023/09/05 03:29:21;;;;;;;12.00;5.38;;;;;;;;;;5093611;28;20024;-78
2023/09/05 03:31:46;;;;;;;10.30;7.18;;;;;;;;;;5101726;28;20023;-78
2023/09/05 03:34:14;;;;;;;15.68;8.57;;;;;;;;;;5091303;28;20024;-78
2023/09/05 03:36:40;;;;;;;14.73;10.68;;;;;;;;;;5083498;28;20055;-78
2023/09/05 03:39:05;;;;;;;19.23;10.35;;;;;;;;;;5091068;28;20102;-80
2023/09/05 03:41:31;;;;;;;11.52;8.60;;;;;;;;;;5092649;28;20035;-79
2023/09/05 03:43:57;;;;;;;11.73;7.75;;;;;;;;;;5090768;28;20016;-77
2023/09/05 03:46:22;;;;;;;8.52;6.75;;;;;;;;;;5092403;28;20035;-80
2023/09/05 03:48:49;;;;;;;9.48;6.25;;;;;;;;;;5099220;28;20399;-80
2023/09/05 03:51:15;;;;;;;11.80;6.00;;;;;;;;;;5089742;28;20093;-80
2023/09/05 03:53:40;;;;;;;7.25;5.05;;;;;;;;;;5084785;28;20456;-77
2023/09/05 03:56:06;;;;;;;10.63;5.05;;;;;;;;;;5079380;28;20395;-78
2023/09/05 03:58:31;;;;;;;10.65;4.72;;;;;;;;;;5086969;28;20025;-78
2023/09/05 04:01:01;;;;;;;7.75;4.03;;;;;;;;;;5087244;28;20029;-78
2023/09/05 04:03:27;;;;;;;10.20;3.45;;;;;;;;;;5089157;28;20487;-79
2023/09/05 04:05:53;;;;;;;10.80;3.80;;;;;;;;;;5089922;28;20043;-79
2023/09/05 04:08:18;;;;;;;9.77;3.72;;;;;;;;;;5073780;28;20451;-79
2023/09/05 04:10:44;;;;;;;10.15;3.75;;;;;;;;;;5091613;28;20122;-79
2023/09/05 04:13:09;;;;;;;7.78;3.60;;;;;;;;;;5092884;28;20454;-79
2023/09/05 04:15:35;;;;;;;8.32;3.30;;;;;;;;;;5091122;28;20071;-79
2023/09/05 04:18:02;;;;;;;7.90;3.22;;;;;;;;;;5090372;28;20016;-79
2023/09/05 04:20:28;;;;;;;16.23;3.38;;;;;;;;;;5097496;28;20475;-79
2023/09/05 04:22:54;;;;;;;10.15;3.80;;;;;;;;;;5090296;28;21033;-79
2023/09/05 04:25:19;;;;;;;6.65;3.20;;;;;;;;;;5084943;28;20060;-80
2023/09/05 04:27:45;;;;;;;6.78;3.50;;;;;;;;;;5085989;28;20458;-78
2023/09/05 04:30:12;;;;;;;10.48;3.60;;;;;;;;;;5084972;28;20036;-80
2023/09/05 04:32:38;;;;;;;10.18;3.47;;;;;;;;;;5094153;28;20031;-80
2023/09/05 04:35:04;;;;;;;8.85;3.33;;;;;;;;;;5095301;28;20032;-79
2023/09/05 04:37:30;;;;;;;11.25;3.50;;;;;;;;;;5086064;28;20031;-80
2023/09/05 04:40:03;;;;;;;14.88;3.97;;;;;;;;;;5089497;28;20028;-79
2023/09/05 04:42:29;;;;;;;14.23;3.85;;;;;;;;;;5089426;28;20059;-79
2023/09/05 04:44:54;;;;;;;12.15;3.70;;;;;;;;;;5091024;28;20024;-79
2023/09/05 04:47:20;;;;;;;8.48;3.55;;;;;;;;;;5089362;28;20043;-80
2023/09/05 04:49:49;;;;;;;10.45;3.88;;;;;;;;;;5090884;28;20024;-79
2023/09/05 04:52:16;;;;;;;10.18;3.83;;;;;;;;;;5089434;28;20118;-79
2023/09/05 04:54:41;;;;;;;12.95;4.30;;;;;;;;;;5089349;28;20023;-80
2023/09/05 04:57:07;;;;;;;9.20;3.92;;;;;;;;;;5089878;28;20032;-78
2023/09/05 04:59:32;;;;;;;12.18;3.88;;;;;;;;;;5091660;28;20035;-78
2023/09/05 05:01:57;;;;;;;10.77;3.92;;;;;;;;;;5090939;28;20036;-78
2023/09/05 05:04:23;;;;;;;15.70;5.50;;;;;;;;;;5090980;28;20073;-79
2023/09/05 05:06:48;;;;;;;13.65;4.43;;;;;;;;;;5089480;28;20039;-79
2023/09/05 05:09:14;;;;;;;12.48;4.22;;;;;;;;;;5089708;28;20421;-79
2023/09/05 05:11:39;;;;;;;14.75;4.60;;;;;;;;;;5089875;28;20038;-80
2023/09/05 05:14:05;;;;;;;14.40;4.05;;;;;;;;;;5092839;28;20417;-79
2023/09/05 05:16:30;;;;;;;15.10;4.03;;;;;;;;;;5089643;28;20047;-79
2023/09/05 05:18:56;;;;;;;9.82;3.90;;;;;;;;;;5088783;28;20471;-80
2023/09/05 05:21:21;;;;;;;12.38;4.03;;;;;;;;;;5090342;28;20143;-80
2023/09/05 05:23:47;;;;;;;11.85;3.88;;;;;;;;;;5072411;28;20020;-81
2023/09/05 05:26:13;;;;;;;9.55;3.53;;;;;;;;;;5088371;28;20396;-79
2023/09/05 05:28:38;;;;;;;8.38;4.07;;;;;;;;;;5088731;28;20507;-81
2023/09/05 05:31:06;;;;;;;9.05;3.78;;;;;;;;;;5090291;28;20032;-81
2023/09/05 05:33:31;;;;;;;11.85;3.90;;;;;;;;;;5085671;28;20390;-81
2023/09/05 05:35:58;;;;;;;12.55;4.55;;;;;;;;;;5089009;28;20092;-80
2023/09/05 05:38:23;;;;;;;10.13;3.55;;;;;;;;;;5089991;28;20020;-81
2023/09/05 05:40:48;;;;;;;8.82;3.17;;;;;;;;;;5089914;28;20032;-80
2023/09/05 05:43:14;;;;;;;7.10;3.25;;;;;;;;;;5088452;28;20427;-79
2023/09/05 05:45:39;;;;;;;12.23;3.67;;;;;;;;;;5088797;28;20072;-80
2023/09/05 05:48:07;;;;;;;10.10;4.07;;;;;;;;;;5089631;28;20149;-80
2023/09/05 05:50:33;;;;;;;11.30;3.65;;;;;;;;;;5088454;28;20039;-80
2023/09/05 05:52:58;;;;;;;10.65;3.53;;;;;;;;;;5071799;28;20023;-80
2023/09/05 05:55:24;;;;;;;9.40;3.85;;;;;;;;;;5089539;28;20028;-80
2023/09/05 05:57:49;;;;;;;6.88;3.60;;;;;;;;;;5088487;28;20024;-79
2023/09/05 06:00:15;;;;;;;8.77;4.03;;;;;;;;;;5089451;28;20479;-79
2023/09/05 06:02:40;;;;;;;11.27;4.00;;;;;;;;;;5090148;28;20395;-79
2023/09/05 06:05:07;;;;;;;11.40;3.70;;;;;;;;;;5089710;28;20046;-81
2023/09/05 06:07:33;;;;;;;10.90;3.97;;;;;;;;;;5088908;28;20047;-80
2023/09/05 06:09:58;;;;;;;8.95;4.18;;;;;;;;;;5089141;28;20070;-80
2023/09/05 06:12:24;;;;;;;12.05;4.05;;;;;;;;;;5088648;28;20055;-80
2023/09/05 06:14:49;;;;;;;8.80;4.60;;;;;;;;;;5084818;28;20507;-79
2023/09/05 06:17:15;;;;;;;8.70;3.70;;;;;;;;;;5082154;28;20028;-79
2023/09/05 06:19:40;;;;;;;7.10;4.00;;;;;;;;;;5094169;28;20031;-80
2023/09/05 06:22:06;;;;;;;11.30;4.13;;;;;;;;;;5093616;28;20107;-79
2023/09/05 06:24:32;;;;;;;13.07;4.20;;;;;;;;;;5091810;28;20432;-79
2023/09/05 06:26:57;;;;;;;14.07;4.43;;;;;;;;;;5092535;28;20104;-80
2023/09/05 06:29:23;;;;;;;9.95;4.07;;;;;;;;;;5092918;28;20032;-80
2023/09/05 06:31:48;;;;;;;13.23;3.72;;;;;;;;;;5086671;28;20093;-80
2023/09/05 06:34:14;;;;;;;16.63;4.78;;;;;;;;;;5090993;28;20481;-80
2023/09/05 06:36:40;;;;;;;10.52;3.88;;;;;;;;;;5090936;28;20023;-80
2023/09/05 06:39:05;;;;;;;9.07;3.72;;;;;;;;;;5092799;28;20071;-80
2023/09/05 06:41:31;;;;;;;11.05;3.42;;;;;;;;;;5093307;28;20020;-80
2023/09/05 06:43:56;;;;;;;13.50;3.67;;;;;;;;;;5092637;28;20035;-79
2023/09/05 06:46:22;;;;;;;7.65;3.30;;;;;;;;;;5091426;28;20050;-80
2023/09/05 06:48:47;;;;;;;9.43;3.58;;;;;;;;;;5092081;28;20039;-80
2023/09/05 06:51:12;;;;;;;9.82;3.83;;;;;;;;;;5092809;28;20042;-78
2023/09/05 06:53:38;;;;;;;10.05;4.03;;;;;;;;;;5092699;28;20067;-79
2023/09/05 06:56:05;;;;;;;6.68;3.20;;;;;;;;;;5094859;28;20027;-79
2023/09/05 06:58:31;;;;;;;10.43;3.50;;;;;;;;;;5096246;28;20040;-80
2023/09/05 07:00:56;;;;;;;10.85;3.90;;;;;;;;;;5083185;28;20023;-80
2023/09/05 07:03:22;;;;;;;8.88;3.65;;;;;;;;;;5091407;28;20032;-79
2023/09/05 07:05:47;;;;;;;9.30;3.42;;;;;;;;;;5090567;28;20020;-80
2023/09/05 07:08:13;;;;;;;11.15;4.28;;;;;;;;;;5090704;28;20116;-79
2023/09/05 07:10:38;;;;;;;18.15;4.70;;;;;;;;;;5091075;28;20028;-79
2023/09/05 07:13:04;;;;;;;12.93;4.10;;;;;;;;;;5093021;28;20036;-80
2023/09/05 07:15:29;;;;;;;11.05;3.78;;;;;;;;;;5090910;28;20062;-80
2023/09/05 07:17:55;;;;;;;11.18;3.65;;;;;;;;;;5092355;28;20036;-80
2023/09/05 07:20:20;;;;;;;7.97;3.38;;;;;;;;;;5092624;28;20039;-80
2023/09/05 07:22:46;;;;;;;8.40;3.10;;;;;;;;;;5074644;28;20032;-79
2023/09/05 07:25:11;;;;;;;8.52;2.88;;;;;;;;;;5090762;28;20024;-80
2023/09/05 07:27:37;;;;;;;5.40;2.50;;;;;;;;;;5088467;28;20480;-81
2023/09/05 07:30:02;;;;;;;10.25;2.88;;;;;;;;;;5090873;28;20028;-80
2023/09/05 07:32:28;;;;;;;4.13;2.33;;;;;;;;;;5092364;28;20040;-81
2023/09/05 07:34:54;;;;;;;4.57;2.05;;;;;;;;;;5091379;28;20031;-81
2023/09/05 07:37:20;;;;;;;3.85;1.48;;;;;;;;;;5090804;28;20081;-80
2023/09/05 07:39:49;;;;;;;3.85;2.10;;;;;;;;;;5083906;28;20028;-81
2023/09/05 07:42:15;;;;;;;4.05;1.38;;;;;;;;;;5074293;28;20035;-81
2023/09/05 07:44:40;;;;;;;9.00;2.97;;;;;;;;;;5085048;28;20085;-79
2023/09/05 07:47:06;;;;;;;10.32;2.50;;;;;;;;;;5091502;28;20028;-79
2023/09/05 07:49:35;;;;;;;7.35;2.10;;;;;;;;;;5087155;28;20051;-80
2023/09/05 07:52:00;;;;;;;7.38;2.30;;;;;;;;;;5088999;28;20044;-80
2023/09/05 07:54:26;;;;;;;7.10;2.60;;;;;;;;;;5088471;28;20069;-81
2023/09/05 07:56:51;;;;;;;6.20;2.05;;;;;;;;;;5080842;28;20036;-80
2023/09/05 07:59:17;;;;;;;5.72;2.40;;;;;;;;;;5089907;28;20047;-80
2023/09/05 08:01:42;;;;;;;5.95;2.58;;;;;;;;;;5086926;28;20462;-80
2023/09/05 08:04:08;;;;;;;6.97;2.35;;;;;;;;;;5090194;28;20077;-79
2023/09/05 08:06:33;;;;;;;5.93;2.60;;;;;;;;;;5091364;28;20078;-80
2023/09/05 08:08:59;;;;;;;6.15;2.10;;;;;;;;;;5088954;28;20032;-80
2023/09/05 08:11:24;;;;;;;8.20;2.28;;;;;;;;;;5086000;28;20047;-81
2023/09/05 08:13:50;;;;;;;8.13;2.30;;;;;;;;;;5090096;28;20028;-81
2023/09/05 08:16:16;;;;;;;4.03;1.83;;;;;;;;;;5085819;28;20036;-79
2023/09/05 08:18:41;;;;;;;5.00;1.88;;;;;;;;;;5091730;28;20387;-79
2023/09/05 08:21:07;;;;;;;3.85;2.00;;;;;;;;;;5091173;28;20490;-80
2023/09/05 08:23:32;;;;;;;3.47;2.10;;;;;;;;;;5089568;28;20032;-80
2023/09/05 08:25:58;;;;;;;4.78;1.80;;;;;;;;;;5089384;28;20048;-80
2023/09/05 08:28:26;;;;;;;5.22;2.03;;;;;;;;;;5088406;28;20028;-80
2023/09/05 08:30:54;;;;;;;5.40;1.98;;;;;;;;;;5070083;28;20107;-78
2023/09/05 08:33:20;;;;;;;4.28;1.90;;;;;;;;;;5090948;28;20020;-80
2023/09/05 08:35:45;;;;;;;5.00;2.40;;;;;;;;;;5090699;28;20399;-80
2023/09/05 08:38:10;;;;;;;7.07;2.30;;;;;;;;;;5090477;28;20098;-80
2023/09/05 08:40:36;;;;;;;6.03;2.20;;;;;;;;;;5090657;28;20055;-80
2023/09/05 08:43:02;;;;;;;4.22;1.80;;;;;;;;;;5091327;28;20056;-80
2023/09/05 08:45:27;;;;;;;4.53;1.77;;;;;;;;;;5089864;28;20075;-80
2023/09/05 08:47:53;;;;;;;3.10;1.90;;;;;;;;;;5089611;28;20052;-80
2023/09/05 08:50:18;;;;;;;4.07;1.95;;;;;;;;;;5085105;28;20386;-80
2023/09/05 08:52:44;;;;;;;5.63;1.85;;;;;;;;;;5084435;28;20024;-80
2023/09/05 08:55:10;;;;;;;2.90;1.60;;;;;;;;;;5089249;28;20396;-80
2023/09/05 08:57:38;;;;;;;2.72;1.77;;;;;;;;;;5072803;28;20028;-80
2023/09/05 09:00:06;;;;;;;3.10;1.70;;;;;;;;;;5089064;28;20028;-81
2023/09/05 09:02:32;;;;;;;2.65;1.63;;;;;;;;;;5092310;28;20502;-80
2023/09/05 09:04:57;;;;;;;4.00;1.67;;;;;;;;;;5088921;28;20418;-80
2023/09/05 09:07:27;;;;;;;6.00;1.65;;;;;;;;;;5091190;28;20020;-80
2023/09/05 09:09:53;;;;;;;2.72;1.60;;;;;;;;;;5085516;28;20036;-80
2023/09/05 09:12:22;;;;;;;4.05;1.70;;;;;;;;;;5089613;28;20506;-80
2023/09/05 09:14:47;;;;;;;2.60;1.70;;;;;;;;;;5089153;28;20081;-80
2023/09/05 09:17:12;;;;;;;2.30;1.40;;;;;;;;;;5070931;28;20040;-81
2023/09/05 09:19:38;;;;;;;2.80;1.58;;;;;;;;;;5084767;28;20043;-80
2023/09/05 09:22:03;;;;;;;2.95;1.75;;;;;;;;;;5089056;28;20552;-80
2023/09/05 09:24:36;;;;;;;3.58;1.40;;;;;;;;;;5089901;28;20036;-80
2023/09/05 09:27:02;;;;;;;3.05;1.90;;;;;;;;;;5089486;28;20059;-80
2023/09/05 09:29:28;;;;;;;2.92;1.70;;;;;;;;;;5070394;28;20047;-80
2023/09/05 09:32:20;;;;;;;6.43;1.80;;;;;;;;;;5089306;28;20415;-81
2023/09/05 09:34:46;;;;;;;3.55;1.55;;;;;;;;;;5088075;28;20039;-80
2023/09/05 09:37:11;;;;;;;2.88;1.90;;;;;;;;;;5089003;28;20143;-80
2023/09/05 09:39:37;;;;;;;3.60;1.30;;;;;;;;;;5089898;28;20122;-80
2023/09/05 09:42:02;;;;;;;3.20;1.70;;;;;;;;;;5089488;28;20120;-79
2023/09/05 09:44:32;;;;;;;4.13;1.52;;;;;;;;;;5090084;28;20036;-80
2023/09/05 09:46:58;;;;;;;2.72;1.80;;;;;;;;;;5088670;28;20090;-79
2023/09/05 09:49:24;;;;;;;2.65;1.50;;;;;;;;;;5088342;28;20050;-81
2023/09/05 09:51:51;;;;;;;3.05;1.80;;;;;;;;;;5090704;28;20031;-80
2023/09/05 09:54:17;;;;;;;2.20;1.40;;;;;;;;;;5092568;28;20115;-80
2023/09/05 09:56:43;;;;;;;3.67;1.40;;;;;;;;;;5092532;28;20110;-80
2023/09/05 09:59:08;;;;;;;2.60;1.33;;;;;;;;;;5091983;28;20518;-81
2023/09/05 10:01:34;;;;;;;2.80;1.50;;;;;;;;;;5075716;28;20026;-81
2023/09/05 10:03:59;;;;;;;3.15;1.40;;;;;;;;;;5074421;28;20034;-80
2023/09/05 10:06:25;;;;;;;3.72;1.73;;;;;;;;;;5092855;28;20028;-80
2023/09/05 10:08:51;;;;;;;3.17;1.40;;;;;;;;;;5091022;28;20040;-81
2023/09/05 10:11:16;;;;;;;3.13;1.58;;;;;;;;;;5091306;28;20028;-80
2023/09/05 10:13:42;;;;;;;4.30;1.55;;;;;;;;;;5092755;28;20024;-81
2023/09/05 10:16:08;;;;;;;2.78;1.70;;;;;;;;;;5092513;28;20080;-80
2023/09/05 10:18:38;;;;;;;3.25;1.60;;;;;;;;;;5088786;28;20028;-79
2023/09/05 10:21:03;;;;;;;2.75;1.40;;;;;;;;;;5085759;28;20053;-80
2023/09/05 10:23:29;;;;;;;8.43;1.65;;;;;;;;;;5088889;28;20118;-82
2023/09/05 10:25:55;;;;;;;3.25;1.50;;;;;;;;;;5092079;28;20059;-79
2023/09/05 10:28:20;;;;;;;4.40;1.40;;;;;;;;;;5091102;28;20032;-79
2023/09/05 10:30:46;;;;;;;2.35;1.38;;;;;;;;;;5083434;28;20027;-81
2023/09/05 10:33:13;;;;;;;3.33;1.30;;;;;;;;;;5090939;28;20042;-81
2023/09/05 10:35:42;;;;;;;3.08;1.02;;;;;;;;;;5091217;28;20162;-80
2023/09/05 10:38:08;;;;;;;3.60;1.23;;;;;;;;;;5091917;28;20055;-79
2023/09/05 10:40:37;;;;;;;1.30;0.90;;;;;;;;;;5091662;28;20550;-79
2023/09/05 10:43:04;;;;;;;2.40;1.23;;;;;;;;;;5088209;28;20467;-82
2023/09/05 10:45:30;;;;;;;2.30;1.20;;;;;;;;;;5090751;28;20031;-80
2023/09/05 10:47:57;;;;;;;2.83;1.10;;;;;;;;;;5073558;28;20517;-80
2023/09/05 10:50:23;;;;;;;3.55;1.40;;;;;;;;;;5086891;28;20031;-80
2023/09/05 10:53:10;;;;;;;3.78;1.30;;;;;;;;;;5090653;28;20580;-81
2023/09/05 10:55:39;;;;;;;2.58;1.17;;;;;;;;;;5085860;28;20024;-80
2023/09/05 10:58:25;;;;;;;2.45;1.10;;;;;;;;;;5085794;28;20031;-81
2023/09/05 11:00:51;;;;;;;3.28;1.20;;;;;;;;;;5093186;28;20028;-81
2023/09/05 11:03:17;;;;;;;2.17;1.30;;;;;;;;;;5091422;28;20027;-81
2023/09/05 11:05:45;;;;;;;2.72;1.50;;;;;;;;;;5093573;28;20039;-81
2023/09/05 11:08:23;;;;;;;2.53;1.20;;;;;;;;;;5091344;28;20035;-79
2023/09/05 11:10:55;;;;;;;2.15;1.00;;;;;;;;;;5092762;28;20032;-81
2023/09/05 11:13:20;;;;;;;2.30;1.23;;;;;;;;;;5092852;28;20089;-80
2023/09/05 11:15:46;;;;;;;3.70;1.42;;;;;;;;;;5092199;28;20024;-79
2023/09/05 11:18:12;;;;;;;2.20;1.25;;;;;;;;;;5092295;28;20047;-80
2023/09/05 11:20:39;;;;;;;1.73;1.08;;;;;;;;;;5091457;28;20020;-80
2023/09/05 11:23:17;;;;;;;2.47;1.20;;;;;;;;;;5092125;28;20462;-80
2023/09/05 11:25:43;;;;;;;2.13;1.08;;;;;;;;;;5084647;28;20070;-80
2023/09/05 11:28:09;;;;;;;3.10;1.23;;;;;;;;;;5090453;28;20119;-80
2023/09/05 11:30:38;;;;;;;2.15;1.30;;;;;;;;;;5092208;28;20410;-81
2023/09/05 11:33:15;;;;;;;1.75;1.15;;;;;;;;;;5093301;28;20020;-80
2023/09/05 11:35:45;;;;;;;3.67;1.08;;;;;;;;;;5091075;28;20063;-80
2023/09/05 11:38:10;;;;;;;2.50;1.30;;;;;;;;;;5085179;28;20475;-80
2023/09/05 11:40:37;;;;;;;2.47;1.42;;;;;;;;;;5089743;28;20043;-80
2023/09/05 11:43:03;;;;;;;2.45;1.15;;;;;;;;;;5091427;28;20016;-80
2023/09/05 11:45:30;;;;;;;2.33;1.20;;;;;;;;;;5090663;28;20048;-80
2023/09/05 11:47:55;;;;;;;2.85;1.15;;;;;;;;;;5091844;28;20024;-81
2023/09/05 11:50:21;;;;;;;3.03;1.20;;;;;;;;;;5073776;28;20514;-80
2023/09/05 11:52:47;;;;;;;2.85;1.17;;;;;;;;;;5073657;28;20031;-80
2023/09/05 11:55:12;;;;;;;2.70;1.38;;;;;;;;;;5089943;28;20636;-80
2023/09/05 11:57:39;;;;;;;3.95;1.30;;;;;;;;;;5087411;28;20541;-81
2023/09/05 12:00:15;;;;;;;2.08;1.17;;;;;;;;;;5090250;28;20035;-80
2023/09/05 12:02:41;;;;;;;3.95;1.17;;;;;;;;;;5080739;28;20472;-81
2023/09/05 12:05:09;;;;;;;2.25;1.40;;;;;;;;;;5089792;28;20028;-81
2023/09/05 12:07:35;;;;;;;2.55;1.23;;;;;;;;;;5090357;28;20032;-81
2023/09/05 12:10:00;;;;;;;2.50;1.20;;;;;;;;;;5091456;28;20426;-80
2023/09/05 12:12:26;;;;;;;3.00;1.17;;;;;;;;;;5090926;28;20570;-81
2023/09/05 12:14:52;;;;;;;2.80;1.17;;;;;;;;;;5090919;28;20062;-81
2023/09/05 12:17:18;;;;;;;2.38;1.20;;;;;;;;;;5091568;28;20036;-79
2023/09/05 12:19:44;;;;;;;2.90;1.25;;;;;;;;;;5090319;28;20089;-79
2023/09/05 12:22:10;;;;;;;6.13;1.42;;;;;;;;;;5092825;28;20051;-81
2023/09/05 12:24:35;;;;;;;4.47;1.20;;;;;;;;;;5090573;28;20028;-80
2023/09/05 12:27:01;;;;;;;4.93;1.40;;;;;;;;;;5091711;28;20565;-80
2023/09/05 12:29:40;;;;;;;2.40;1.27;;;;;;;;;;5073484;28;20028;-80
2023/09/05 12:32:06;;;;;;;3.53;1.40;;;;;;;;;;5091474;28;20060;-80
2023/09/05 12:34:31;;;;;;;1.83;1.02;;;;;;;;;;5084218;28;20050;-80
2023/09/05 12:36:57;;;;;;;2.20;1.20;;;;;;;;;;5090897;28;20024;-81
2023/09/05 12:39:22;;;;;;;5.55;1.40;;;;;;;;;;5089930;28;20530;-81
2023/09/05 12:41:50;;;;;;;4.63;1.27;;;;;;;;;;5091181;28;20042;-80
2023/09/05 12:44:15;;;;;;;2.58;1.10;;;;;;;;;;5090452;28;20028;-80
2023/09/05 12:46:41;;;;;;;2.72;1.30;;;;;;;;;;5089389;28;20032;-80
2023/09/05 12:49:07;;;;;;;3.30;1.20;;;;;;;;;;5090722;28;20020;-80
2023/09/05 12:51:33;;;;;;;4.53;1.23;;;;;;;;;;5091102;28;20395;-80
2023/09/05 12:53:59;;;;;;;2.83;1.13;;;;;;;;;;5091028;28;20085;-80
2023/09/05 12:56:24;;;;;;;2.42;1.23;;;;;;;;;;5089083;28;20092;-80
2023/09/05 12:58:51;;;;;;;4.13;1.40;;;;;;;;;;5088489;28;21445;-80
2023/09/05 13:01:16;;;;;;;2.50;1.20;;;;;;;;;;5090662;28;20619;-79
2023/09/05 13:03:42;;;;;;;3.03;1.20;;;;;;;;;;5090520;28;20116;-80
2023/09/05 13:06:07;;;;;;;2.35;0.93;;;;;;;;;;5089599;28;20024;-80
2023/09/05 13:08:35;;;;;;;2.03;1.10;;;;;;;;;;5090504;28;20009;-79
2023/09/05 13:11:01;;;;;;;2.83;0.95;;;;;;;;;;5082110;28;20123;-80
2023/09/05 13:13:26;;;;;;;2.20;1.10;;;;;;;;;;5090312;28;20103;-79
2023/09/05 13:15:52;;;;;;;2.45;1.10;;;;;;;;;;5088852;28;20032;-79
2023/09/05 13:18:18;;;;;;;1.73;1.10;;;;;;;;;;5088583;28;20225;-81
2023/09/05 13:20:44;;;;;;;4.05;1.20;;;;;;;;;;5089145;28;20040;-81
2023/09/05 13:23:09;;;;;;;1.90;1.10;;;;;;;;;;5090307;28;20036;-80
2023/09/05 13:25:37;;;;;;;2.40;1.20;;;;;;;;;;5089048;28;20131;-80
2023/09/05 13:28:04;;;;;;;2.33;1.27;;;;;;;;;;5091099;28;20036;-80
2023/09/05 13:30:30;;;;;;;2.95;1.05;;;;;;;;;;5090001;28;20023;-80
2023/09/05 13:32:55;;;;;;;2.55;1.17;;;;;;;;;;5087594;28;20069;-80
2023/09/05 13:35:21;;;;;;;1.85;1.10;;;;;;;;;;5087098;28;20047;-80
2023/09/05 13:37:46;;;;;;;2.70;1.25;;;;;;;;;;5088625;28;20548;-81
2023/09/05 13:40:13;;;;;;;2.08;1.20;;;;;;;;;;5089860;28;20040;-80
2023/09/05 13:42:38;;;;;;;1.90;1.20;;;;;;;;;;5088422;28;20023;-80
2023/09/05 13:45:04;;;;;;;2.42;1.38;;;;;;;;;;5088994;28;20081;-81
2023/09/05 13:47:30;;;;;;;2.75;1.00;;;;;;;;;;5089716;28;20502;-81
2023/09/05 13:49:56;;;;;;;2.63;1.48;;;;;;;;;;5090415;28;20032;-81
2023/09/05 13:52:21;;;;;;;3.92;1.50;;;;;;;;;;5089251;28;20754;-80
2023/09/05 13:54:46;;;;;;;2.20;1.35;;;;;;;;;;5091464;28;20506;-80
2023/09/05 13:57:12;;;;;;;2.55;1.30;;;;;;;;;;5088449;28;20028;-80
2023/09/05 13:59:37;;;;;;;2.80;1.48;;;;;;;;;;5089571;28;20032;-80
2023/09/05 14:02:03;;;;;;;2.35;1.38;;;;;;;;;;5101698;28;20167;-80
2023/09/05 14:04:29;;;;;;;5.00;1.60;;;;;;;;;;5090191;28;20070;-80
2023/09/05 14:06:55;;;;;;;4.30;1.30;;;;;;;;;;5080564;28;20501;-80
2023/09/05 14:09:20;;;;;;;6.22;1.58;;;;;;;;;;5089502;28;20028;-80
2023/09/05 14:11:46;;;;;;;2.58;1.42;;;;;;;;;;5089632;28;20024;-80
2023/09/05 14:14:15;;;;;;;3.50;1.50;;;;;;;;;;5089759;28;20028;-80
2023/09/05 14:16:41;;;;;;;2.45;1.30;;;;;;;;;;5088501;28;20153;-81
2023/09/05 14:19:07;;;;;;;3.10;1.30;;;;;;;;;;5095302;28;20035;-81
2023/09/05 14:21:33;;;;;;;2.78;1.60;;;;;;;;;;5085906;28;20063;-79
2023/09/05 14:23:58;;;;;;;4.55;1.63;;;;;;;;;;5080409;28;20056;-79
2023/09/05 14:26:25;;;;;;;4.75;1.48;;;;;;;;;;5087624;28;20388;-79
2023/09/05 14:28:50;;;;;;;3.47;1.30;;;;;;;;;;5088560;28;20043;-80
2023/09/05 14:31:19;;;;;;;5.32;1.67;;;;;;;;;;5088126;28;20020;-80
2023/09/05 14:33:44;;;;;;;2.80;1.45;;;;;;;;;;5089618;28;20063;-80
2023/09/05 14:36:10;;;;;;;4.10;1.60;;;;;;;;;;5091632;28;20059;-81